Time;durP1;ratioP1;P1;durP2;ratioP2;P2;SDS_P1;SDS_P2;PMS_P1;PMS_P2;Temp;Humidity;BMP_temperature;BMP_pressure;BME280_temperature;BME280_humidity;BME280_pressure;Samples;Min_cycle;Max_cycle;Signal;HPM_P1;HPM_P2
2023/03/16 00:01:24;;;;;;;22.93;12.90;;;1.70;94.40;;;;;;5046918;28;20191;-76
2023/03/16 00:03:49;;;;;;;21.73;13.07;;;1.70;94.30;;;;;;5031823;28;20212;-75
2023/03/16 00:06:15;;;;;;;21.93;13.03;;;1.70;94.30;;;;;;5045584;28;20215;-75
2023/03/16 00:08:42;;;;;;;24.13;12.47;;;1.70;94.20;;;;;;5049295;28;20247;-76
2023/03/16 00:11:07;;;;;;;23.77;13.82;;;1.70;94.20;;;;;;5048435;28;20192;-76
2023/03/16 00:13:33;;;;;;;27.13;14.63;;;1.70;94.20;;;;;;5048402;28;20595;-75
2023/03/16 00:16:03;;;;;;;28.80;13.43;;;1.70;94.20;;;;;;5050293;28;20181;-76
2023/03/16 00:18:30;;;;;;;23.85;13.00;;;1.70;94.20;;;;;;5045331;28;20183;-75
2023/03/16 00:21:04;;;;;;;21.85;12.27;;;1.70;94.20;;;;;;5054573;28;20234;-75
2023/03/16 00:23:34;;;;;;;22.65;12.90;;;1.70;94.20;;;;;;5056869;28;20219;-75
2023/03/16 00:26:04;;;;;;;24.63;13.25;;;1.70;94.20;;;;;;5054197;28;20185;-75
2023/03/16 00:28:34;;;;;;;25.05;13.48;;;1.70;94.20;;;;;;5051362;28;20263;-76
2023/03/16 00:31:10;;;;;;;26.38;14.05;;;1.60;94.20;;;;;;5032636;28;20204;-75
2023/03/16 00:33:37;;;;;;;22.60;12.73;;;1.60;94.20;;;;;;5046585;28;20949;-75
2023/03/16 00:36:04;;;;;;;25.17;13.43;;;1.60;94.20;;;;;;5049593;28;20193;-76
2023/03/16 00:38:33;;;;;;;29.48;14.50;;;1.50;94.20;;;;;;5032337;28;20649;-76
2023/03/16 00:41:02;;;;;;;32.83;14.18;;;1.50;94.30;;;;;;5042062;28;20224;-76
2023/03/16 00:43:29;;;;;;;25.55;14.55;;;1.50;94.20;;;;;;5050795;28;20191;-74
2023/03/16 00:46:05;;;;;;;26.08;14.05;;;1.50;94.30;;;;;;5052971;28;20195;-75
2023/03/16 00:48:33;;;;;;;24.98;15.23;;;1.50;94.20;;;;;;5049091;28;20172;-74
2023/03/16 00:51:00;;;;;;;26.70;14.65;;;1.50;94.20;;;;;;5052112;28;20205;-74
2023/03/16 00:53:26;;;;;;;28.95;14.75;;;1.40;94.20;;;;;;5049855;28;20667;-74
2023/03/16 00:55:52;;;;;;;23.73;13.40;;;1.40;94.20;;;;;;5046489;28;20201;-73
2023/03/16 00:58:18;;;;;;;25.33;12.95;;;1.40;94.20;;;;;;5052017;28;20565;-74
2023/03/16 01:00:45;;;;;;;27.80;14.10;;;1.40;94.30;;;;;;5045144;28;20644;-74
2023/03/16 01:03:10;;;;;;;29.48;15.02;;;1.40;94.20;;;;;;5032784;28;20610;-73
2023/03/16 01:05:40;;;;;;;26.27;13.63;;;1.40;94.20;;;;;;5050188;28;20330;-74
2023/03/16 01:08:07;;;;;;;27.75;15.60;;;1.40;94.20;;;;;;5048766;28;20336;-74
2023/03/16 01:10:37;;;;;;;27.42;14.57;;;1.40;94.30;;;;;;5049750;28;20208;-75
2023/03/16 01:13:02;;;;;;;22.10;12.65;;;1.40;94.30;;;;;;5056458;28;20343;-74
2023/03/16 01:15:29;;;;;;;22.40;12.33;;;1.40;94.30;;;;;;5055749;28;20589;-73
2023/03/16 01:17:55;;;;;;;26.15;12.77;;;1.40;94.30;;;;;;5036099;28;20177;-74
2023/03/16 01:20:21;;;;;;;24.90;12.13;;;1.40;94.30;;;;;;5050568;28;20197;-74
2023/03/16 01:22:47;;;;;;;27.50;12.70;;;1.30;94.20;;;;;;5053964;28;20196;-74
2023/03/16 01:25:13;;;;;;;23.33;12.27;;;1.30;94.10;;;;;;5047105;28;20935;-75
2023/03/16 01:27:39;;;;;;;23.17;12.38;;;1.30;94.10;;;;;;5054178;28;20595;-74
2023/03/16 01:30:05;;;;;;;27.10;13.40;;;1.20;94.10;;;;;;5053126;28;20216;-73
2023/03/16 01:32:31;;;;;;;23.30;12.88;;;1.20;94.10;;;;;;5056136;28;20205;-74
2023/03/16 01:34:56;;;;;;;23.00;12.67;;;1.20;94.10;;;;;;5054543;28;20247;-73
2023/03/16 01:37:22;;;;;;;30.40;14.33;;;1.20;94.10;;;;;;5056894;28;20185;-74
2023/03/16 01:39:48;;;;;;;24.40;12.13;;;1.20;94.10;;;;;;5033926;28;20686;-73
2023/03/16 01:42:14;;;;;;;27.02;13.52;;;1.20;94.20;;;;;;5057151;28;20188;-74
2023/03/16 01:44:53;;;;;;;25.23;13.07;;;1.20;94.30;;;;;;5064672;28;20176;-74
2023/03/16 01:47:18;;;;;;;27.30;13.82;;;1.20;94.30;;;;;;5052935;28;20173;-75
2023/03/16 01:49:47;;;;;;;30.30;16.90;;;1.20;94.40;;;;;;5047145;28;20219;-76
2023/03/16 01:52:20;;;;;;;27.98;15.02;;;1.10;94.50;;;;;;5049568;28;20687;-75
2023/03/16 01:55:01;;;;;;;31.42;15.85;;;1.20;94.60;;;;;;5048555;28;20185;-75
2023/03/16 01:57:34;;;;;;;28.58;15.48;;;1.10;94.60;;;;;;5031014;28;20172;-75
2023/03/16 02:00:09;;;;;;;34.70;17.13;;;1.20;94.70;;;;;;5027374;28;20655;-76
2023/03/16 02:02:37;;;;;;;31.05;16.38;;;1.20;94.60;;;;;;5047665;28;20176;-73
2023/03/16 02:05:14;;;;;;;27.30;15.52;;;1.20;94.60;;;;;;5047037;28;20204;-76
2023/03/16 02:07:45;;;;;;;27.38;16.58;;;1.20;94.60;;;;;;5044160;28;20339;-75
2023/03/16 02:10:12;;;;;;;31.65;16.85;;;1.30;94.60;;;;;;5027370;28;20600;-74
2023/03/16 02:12:38;;;;;;;33.05;16.55;;;1.20;94.50;;;;;;5047567;28;20333;-75
2023/03/16 02:15:04;;;;;;;35.90;19.60;;;1.20;94.40;;;;;;5024941;28;20177;-76
2023/03/16 02:17:32;;;;;;;32.83;17.13;;;1.10;94.50;;;;;;5032503;28;20176;-76
2023/03/16 02:20:22;;;;;;;34.20;18.55;;;1.10;94.30;;;;;;5029718;28;20319;-75
2023/03/16 02:22:54;;;;;;;32.03;16.05;;;1.10;94.20;;;;;;5031546;28;20762;-75
2023/03/16 02:25:23;;;;;;;34.28;19.65;;;1.10;94.20;;;;;;5049306;28;20189;-75
2023/03/16 02:27:49;;;;;;;30.38;17.17;;;1.10;94.10;;;;;;5046955;28;20220;-75
2023/03/16 02:30:17;;;;;;;38.07;18.43;;;1.10;94.00;;;;;;5040446;28;20279;-75
2023/03/16 02:32:44;;;;;;;33.47;17.85;;;1.00;94.00;;;;;;5049999;28;20279;-75
2023/03/16 02:35:11;;;;;;;32.25;18.30;;;1.10;94.00;;;;;;5042213;28;20178;-76
2023/03/16 02:37:37;;;;;;;33.17;17.65;;;1.10;94.00;;;;;;5032115;28;20595;-77
2023/03/16 02:40:21;;;;;;;28.25;16.45;;;1.10;94.00;;;;;;5037401;28;20221;-75
2023/03/16 02:42:55;;;;;;;30.13;17.27;;;1.10;94.00;;;;;;5030297;28;20192;-75
2023/03/16 02:45:24;;;;;;;35.53;17.42;;;1.10;93.90;;;;;;5050561;28;20187;-75
2023/03/16 02:47:52;;;;;;;38.20;18.75;;;1.10;93.80;;;;;;5050008;28;20196;-75
2023/03/16 02:50:18;;;;;;;36.05;19.05;;;1.10;93.80;;;;;;5048351;28;20216;-75
2023/03/16 02:52:43;;;;;;;34.00;18.33;;;1.10;93.70;;;;;;5048871;28;20243;-75
2023/03/16 02:55:09;;;;;;;33.73;17.80;;;1.00;93.60;;;;;;5051028;28;20180;-76
2023/03/16 02:57:35;;;;;;;35.90;18.35;;;1.00;93.60;;;;;;5048215;28;20216;-75
2023/03/16 03:00:05;;;;;;;38.07;17.37;;;1.00;93.60;;;;;;5047128;28;20239;-75
2023/03/16 03:02:30;;;;;;;32.55;17.88;;;1.00;93.60;;;;;;5048575;28;20662;-75
2023/03/16 03:04:56;;;;;;;37.07;19.60;;;1.00;93.60;;;;;;5048505;28;20196;-76
2023/03/16 03:07:31;;;;;;;43.40;21.90;;;0.90;93.60;;;;;;5026746;28;20209;-75
2023/03/16 03:09:57;;;;;;;41.28;19.33;;;0.90;93.60;;;;;;5044554;28;20282;-74
2023/03/16 03:12:23;;;;;;;37.63;18.60;;;0.90;93.70;;;;;;5047249;28;20287;-76
2023/03/16 03:14:48;;;;;;;34.57;17.87;;;0.80;93.70;;;;;;5046834;28;20716;-75
2023/03/16 03:17:14;;;;;;;38.80;18.83;;;0.80;93.70;;;;;;5044685;28;20185;-75
2023/03/16 03:19:40;;;;;;;39.50;21.20;;;0.90;93.80;;;;;;5048873;28;20287;-73
2023/03/16 03:22:06;;;;;;;40.03;19.07;;;0.90;93.80;;;;;;5050064;28;20288;-74
2023/03/16 03:24:33;;;;;;;38.70;18.95;;;0.90;93.80;;;;;;5052928;28;20187;-75
2023/03/16 03:27:00;;;;;;;32.30;17.45;;;0.90;93.80;;;;;;5042541;28;20633;-76
2023/03/16 03:29:33;;;;;;;40.28;19.25;;;0.90;93.80;;;;;;5048103;28;20216;-75
2023/03/16 03:32:05;;;;;;;42.70;19.08;;;0.90;93.80;;;;;;5034069;28;20204;-76
2023/03/16 03:34:30;;;;;;;34.60;18.75;;;0.90;93.80;;;;;;5033323;28;20194;-74
2023/03/16 03:36:57;;;;;;;44.20;19.70;;;0.90;93.80;;;;;;5054861;28;20271;-75
2023/03/16 03:39:23;;;;;;;45.28;21.15;;;0.90;93.70;;;;;;5034562;28;20791;-76
2023/03/16 03:41:48;;;;;;;34.38;18.83;;;0.90;93.70;;;;;;5054682;28;20721;-75
2023/03/16 03:44:14;;;;;;;38.50;17.83;;;0.80;93.70;;;;;;5036426;28;20192;-75
2023/03/16 03:46:39;;;;;;;35.60;18.10;;;0.80;93.70;;;;;;5052952;28;20180;-76
2023/03/16 03:49:05;;;;;;;37.87;18.90;;;0.80;93.70;;;;;;5050274;28;20219;-75
2023/03/16 03:51:31;;;;;;;38.20;19.93;;;0.90;93.80;;;;;;5052216;28;20176;-76
2023/03/16 03:53:58;;;;;;;36.88;18.90;;;0.80;93.70;;;;;;5051136;28;20180;-73
2023/03/16 03:56:24;;;;;;;44.53;20.60;;;0.80;93.70;;;;;;5051431;28;20670;-76
2023/03/16 03:58:50;;;;;;;43.65;21.45;;;0.80;93.70;;;;;;5054513;28;20172;-75
2023/03/16 04:01:16;;;;;;;38.23;20.10;;;0.70;93.70;;;;;;5051101;28;20241;-75
2023/03/16 04:03:41;;;;;;;36.57;20.17;;;0.70;93.60;;;;;;5056812;28;20680;-77
2023/03/16 04:06:07;;;;;;;41.20;20.73;;;0.60;93.60;;;;;;5057338;28;20668;-76
2023/03/16 04:08:34;;;;;;;37.88;20.08;;;0.60;93.60;;;;;;5053490;28;20180;-74
2023/03/16 04:10:59;;;;;;;35.92;18.73;;;0.60;93.70;;;;;;5060364;28;20407;-75
2023/03/16 04:13:25;;;;;;;43.40;21.40;;;0.60;93.70;;;;;;5060220;28;20236;-75
2023/03/16 04:15:58;;;;;;;41.87;22.63;;;0.60;93.70;;;;;;5063690;28;20766;-75
2023/03/16 04:18:24;;;;;;;38.00;19.58;;;0.50;93.70;;;;;;5057512;28;20415;-74
2023/03/16 04:20:52;;;;;;;38.60;19.05;;;0.50;93.70;;;;;;5052056;28;20213;-76
2023/03/16 04:23:18;;;;;;;45.05;22.85;;;0.50;93.90;;;;;;5055774;28;20181;-75
2023/03/16 04:25:44;;;;;;;38.05;20.80;;;0.50;94.00;;;;;;5053078;28;20221;-76
2023/03/16 04:28:09;;;;;;;39.53;20.87;;;0.50;94.00;;;;;;5037782;28;20188;-76
2023/03/16 04:30:35;;;;;;;33.20;19.27;;;0.50;94.00;;;;;;5041454;28;20532;-76
2023/03/16 04:33:01;;;;;;;35.83;18.33;;;0.50;94.00;;;;;;5056422;28;20296;-74
2023/03/16 04:35:26;;;;;;;39.73;17.93;;;0.50;94.10;;;;;;5052643;28;20241;-76
2023/03/16 04:37:52;;;;;;;34.60;18.53;;;0.60;94.00;;;;;;5031429;28;20222;-76
2023/03/16 04:40:18;;;;;;;36.90;19.63;;;0.60;93.90;;;;;;5033791;28;20220;-76
2023/03/16 04:42:45;;;;;;;34.20;18.80;;;0.60;93.90;;;;;;5049133;28;20192;-73
2023/03/16 04:45:11;;;;;;;32.67;16.85;;;0.60;93.80;;;;;;5049439;28;20176;-75
2023/03/16 04:47:37;;;;;;;38.75;19.13;;;0.60;93.80;;;;;;5041964;28;20548;-75
2023/03/16 04:50:04;;;;;;;36.23;18.43;;;0.50;93.70;;;;;;5049456;28;20223;-74
2023/03/16 04:52:30;;;;;;;38.03;19.25;;;0.50;93.70;;;;;;5032166;28;20466;-74
2023/03/16 04:54:56;;;;;;;41.20;17.60;;;0.50;93.70;;;;;;5053579;28;20192;-75
2023/03/16 04:57:22;;;;;;;35.10;18.53;;;0.50;93.70;;;;;;5051104;28;20427;-75
2023/03/16 04:59:47;;;;;;;38.70;19.10;;;0.50;93.70;;;;;;5051616;28;20287;-76
2023/03/16 05:02:13;;;;;;;32.90;17.70;;;0.50;93.60;;;;;;5045827;28;20422;-74
2023/03/16 05:04:39;;;;;;;36.00;18.70;;;0.50;93.60;;;;;;5053257;28;20188;-76
2023/03/16 05:07:04;;;;;;;33.53;17.20;;;0.50;93.60;;;;;;5049585;28;20190;-74
2023/03/16 05:09:30;;;;;;;34.57;19.27;;;0.50;93.60;;;;;;5046139;28;20738;-75
2023/03/16 05:11:56;;;;;;;31.17;16.67;;;0.50;93.50;;;;;;5052718;28;20231;-74
2023/03/16 05:14:21;;;;;;;34.47;16.47;;;0.50;93.50;;;;;;5052367;28;20191;-74
2023/03/16 05:16:47;;;;;;;36.70;18.20;;;0.50;93.50;;;;;;5050642;28;20187;-73
2023/03/16 05:19:15;;;;;;;32.13;18.50;;;0.50;93.50;;;;;;5049706;28;20196;-75
2023/03/16 05:21:41;;;;;;;37.65;18.25;;;0.60;93.50;;;;;;5049381;28;20181;-75
2023/03/16 05:24:07;;;;;;;38.63;17.57;;;0.60;93.50;;;;;;5050994;28;20191;-74
2023/03/16 05:26:33;;;;;;;30.27;16.27;;;0.60;93.50;;;;;;5047345;28;20181;-74
2023/03/16 05:28:59;;;;;;;36.20;17.37;;;0.60;93.50;;;;;;5048133;28;20176;-72
2023/03/16 05:31:25;;;;;;;36.97;17.15;;;0.60;93.40;;;;;;5046717;28;21408;-76
2023/03/16 05:33:52;;;;;;;34.90;17.93;;;0.60;93.40;;;;;;5030950;28;20299;-76
2023/03/16 05:36:18;;;;;;;42.65;18.00;;;0.60;93.40;;;;;;5044882;28;20208;-73
2023/03/16 05:38:45;;;;;;;32.65;17.90;;;0.60;93.40;;;;;;5048464;28;20656;-76
2023/03/16 05:41:10;;;;;;;39.05;18.00;;;0.60;93.40;;;;;;5032902;28;20192;-75
2023/03/16 05:43:36;;;;;;;29.70;16.37;;;0.60;93.40;;;;;;5053298;28;20614;-75
2023/03/16 05:46:02;;;;;;;34.00;16.07;;;0.60;93.30;;;;;;5052550;28;20433;-73
2023/03/16 05:48:28;;;;;;;32.77;17.57;;;0.70;93.20;;;;;;5046656;28;20200;-75
2023/03/16 05:50:54;;;;;;;34.00;15.17;;;0.60;93.10;;;;;;5044643;28;20510;-73
2023/03/16 05:53:20;;;;;;;33.83;17.70;;;0.60;92.90;;;;;;5051021;28;20216;-72
2023/03/16 05:55:51;;;;;;;37.60;17.17;;;0.60;92.90;;;;;;5052683;28;20427;-72
2023/03/16 05:58:17;;;;;;;36.15;18.50;;;0.60;92.90;;;;;;5050718;28;21235;-74
2023/03/16 06:00:42;;;;;;;37.80;17.90;;;0.60;93.00;;;;;;5048235;28;20211;-74
2023/03/16 06:03:08;;;;;;;38.60;18.60;;;0.50;92.90;;;;;;5050505;28;20555;-75
2023/03/16 06:05:33;;;;;;;36.90;18.13;;;0.60;93.00;;;;;;5033316;28;20192;-74
2023/03/16 06:07:59;;;;;;;31.23;16.47;;;0.60;93.00;;;;;;5050013;28;20184;-73
2023/03/16 06:10:25;;;;;;;40.13;17.80;;;0.70;93.00;;;;;;5046823;28;20201;-75
2023/03/16 06:12:51;;;;;;;32.28;15.93;;;0.70;93.00;;;;;;5049450;28;20266;-74
2023/03/16 06:15:16;;;;;;;34.40;17.13;;;0.80;92.80;;;;;;5048921;28;21084;-75
2023/03/16 06:17:42;;;;;;;33.13;17.00;;;0.80;92.80;;;;;;5050108;28;20458;-76
2023/03/16 06:20:11;;;;;;;34.70;17.40;;;0.90;92.70;;;;;;5047076;28;20208;-74
2023/03/16 06:22:41;;;;;;;39.75;17.65;;;0.90;92.70;;;;;;5049998;28;20277;-74
2023/03/16 06:25:08;;;;;;;38.42;16.27;;;0.90;92.60;;;;;;5027134;28;20189;-76
2023/03/16 06:27:35;;;;;;;31.52;17.25;;;0.90;92.50;;;;;;5050735;28;20230;-74
2023/03/16 06:30:00;;;;;;;33.55;16.92;;;0.90;92.40;;;;;;5040363;28;20312;-74
2023/03/16 06:32:26;;;;;;;37.13;16.87;;;1.00;92.40;;;;;;5049646;28;20213;-73
2023/03/16 06:34:52;;;;;;;33.40;16.40;;;1.00;92.40;;;;;;5041232;28;20189;-74
2023/03/16 06:37:18;;;;;;;36.97;17.83;;;1.00;92.30;;;;;;5048267;28;20200;-74
2023/03/16 06:39:43;;;;;;;36.70;17.97;;;1.00;92.10;;;;;;5037276;28;20483;-74
2023/03/16 06:42:09;;;;;;;33.70;17.33;;;1.00;92.10;;;;;;5029343;28;20545;-74
2023/03/16 06:44:35;;;;;;;35.70;17.37;;;1.00;92.00;;;;;;5031873;28;20191;-76
2023/03/16 06:47:00;;;;;;;29.90;15.70;;;1.10;92.00;;;;;;5046416;28;20917;-75
2023/03/16 06:49:26;;;;;;;39.50;18.40;;;1.10;92.10;;;;;;5024898;28;20212;-76
2023/03/16 06:51:51;;;;;;;44.97;19.00;;;1.20;91.90;;;;;;5051666;28;20216;-75
2023/03/16 06:54:17;;;;;;;36.13;16.83;;;1.20;91.80;;;;;;5050115;28;20271;-74
2023/03/16 06:56:42;;;;;;;36.43;17.70;;;1.20;91.80;;;;;;5049371;28;20181;-75
2023/03/16 06:59:08;;;;;;;37.30;17.57;;;1.30;91.80;;;;;;5045074;28;20228;-74
2023/03/16 07:01:34;;;;;;;35.43;17.50;;;1.30;91.80;;;;;;5031784;28;20278;-75
2023/03/16 07:04:00;;;;;;;36.43;18.17;;;1.40;91.70;;;;;;5049030;28;20180;-75
2023/03/16 07:06:26;;;;;;;32.83;15.43;;;1.40;91.60;;;;;;5048533;28;20188;-73
2023/03/16 07:08:51;;;;;;;34.17;17.50;;;1.40;91.60;;;;;;5044803;28;20185;-75
2023/03/16 07:11:17;;;;;;;37.60;17.20;;;1.50;91.50;;;;;;5034167;28;20193;-75
2023/03/16 07:13:43;;;;;;;37.13;17.63;;;1.50;91.30;;;;;;5049876;28;20208;-76
2023/03/16 07:16:08;;;;;;;34.47;18.20;;;1.60;91.20;;;;;;5054243;28;20173;-74
2023/03/16 07:18:36;;;;;;;34.70;16.57;;;1.60;91.10;;;;;;5057668;28;20173;-73
2023/03/16 07:21:02;;;;;;;32.25;16.13;;;1.70;91.00;;;;;;5054463;28;20307;-76
2023/03/16 07:23:28;;;;;;;30.45;14.77;;;1.70;91.00;;;;;;5046947;28;20177;-73
2023/03/16 07:25:54;;;;;;;40.00;17.53;;;1.80;90.90;;;;;;5046559;28;20285;-75
2023/03/16 07:28:20;;;;;;;31.03;16.10;;;1.80;90.80;;;;;;5042858;28;20181;-74
2023/03/16 07:30:46;;;;;;;31.50;16.00;;;1.90;90.70;;;;;;5029729;28;20212;-75
2023/03/16 07:33:12;;;;;;;29.93;15.57;;;2.00;90.60;;;;;;5046679;28;20459;-74
2023/03/16 07:35:37;;;;;;;34.93;16.37;;;2.00;90.50;;;;;;5044830;28;20784;-74
2023/03/16 07:38:03;;;;;;;28.40;14.93;;;2.00;90.40;;;;;;5044738;28;20181;-75
2023/03/16 07:40:28;;;;;;;39.70;16.70;;;2.20;90.30;;;;;;5039985;28;20212;-74
2023/03/16 07:42:54;;;;;;;31.37;15.60;;;2.20;90.00;;;;;;5047477;28;20953;-73
2023/03/16 07:45:20;;;;;;;33.57;15.83;;;2.30;89.50;;;;;;5050429;28;20180;-75
2023/03/16 07:47:46;;;;;;;33.23;14.53;;;2.30;89.00;;;;;;5048336;28;21172;-74
2023/03/16 07:50:12;;;;;;;32.07;14.53;;;2.30;89.00;;;;;;5047254;28;20647;-75
2023/03/16 07:52:39;;;;;;;30.10;15.45;;;2.40;89.00;;;;;;5029555;28;20205;-73
2023/03/16 07:55:05;;;;;;;26.40;14.20;;;2.40;88.90;;;;;;5030742;28;20188;-76
2023/03/16 07:57:30;;;;;;;29.63;14.10;;;2.50;89.00;;;;;;5029309;28;20431;-75
2023/03/16 07:59:57;;;;;;;25.37;12.80;;;2.60;88.90;;;;;;5046550;28;20720;-73
2023/03/16 08:02:22;;;;;;;30.33;15.07;;;2.60;88.40;;;;;;5047606;28;20181;-75
2023/03/16 08:04:48;;;;;;;32.67;15.50;;;2.70;88.10;;;;;;5047339;28;20833;-75
2023/03/16 08:07:14;;;;;;;31.90;14.03;;;2.80;87.80;;;;;;5043741;28;20191;-73
2023/03/16 08:09:40;;;;;;;33.43;15.13;;;3.00;88.00;;;;;;5044059;28;20769;-75
2023/03/16 08:12:07;;;;;;;28.57;14.20;;;3.10;87.30;;;;;;5044842;28;20490;-74
2023/03/16 08:14:33;;;;;;;28.03;12.83;;;3.20;86.80;;;;;;5039060;28;20479;-74
2023/03/16 08:17:00;;;;;;;26.10;11.13;;;3.30;86.50;;;;;;5047085;28;20761;-73
2023/03/16 08:19:26;;;;;;;26.63;13.10;;;3.40;86.20;;;;;;5049037;28;20925;-76
2023/03/16 08:21:52;;;;;;;25.80;12.67;;;3.60;85.50;;;;;;5051371;28;20476;-75
2023/03/16 08:24:18;;;;;;;23.60;12.67;;;3.60;84.90;;;;;;5052632;28;20782;-75
2023/03/16 08:26:43;;;;;;;24.90;12.33;;;3.70;84.60;;;;;;5045337;28;20192;-73
2023/03/16 08:29:09;;;;;;;18.80;10.30;;;3.80;84.10;;;;;;5047189;28;20213;-76
2023/03/16 08:31:34;;;;;;;18.00;10.07;;;3.90;83.80;;;;;;5048964;28;20192;-72
2023/03/16 08:34:00;;;;;;;20.20;11.37;;;4.10;83.10;;;;;;5055884;28;20220;-73
2023/03/16 08:36:30;;;;;;;20.80;10.53;;;4.20;82.10;;;;;;5055574;28;20216;-72
2023/03/16 08:38:55;;;;;;;20.53;11.50;;;4.30;81.50;;;;;;5054368;28;20539;-73
2023/03/16 08:41:21;;;;;;;19.60;9.40;;;4.40;80.90;;;;;;5054132;28;20925;-73
2023/03/16 08:43:47;;;;;;;21.00;9.00;;;4.50;80.60;;;;;;5051775;28;20209;-74
2023/03/16 08:46:13;;;;;;;15.40;9.17;;;4.50;80.30;;;;;;5053002;28;20435;-74
2023/03/16 08:48:40;;;;;;;14.90;8.00;;;4.70;79.60;;;;;;5036724;28;20446;-74
2023/03/16 08:51:08;;;;;;;16.40;8.37;;;4.90;79.00;;;;;;5047181;28;20546;-75
2023/03/16 08:53:35;;;;;;;17.30;8.43;;;4.90;79.00;;;;;;5049271;28;20502;-75
2023/03/16 08:56:10;;;;;;;18.63;8.60;;;5.10;78.90;;;;;;5049302;28;20424;-75
2023/03/16 08:58:36;;;;;;;15.30;8.30;;;5.20;78.60;;;;;;5048128;28;20426;-73
2023/03/16 09:01:04;;;;;;;13.83;7.40;;;5.40;78.00;;;;;;5044277;28;20466;-74
2023/03/16 09:03:34;;;;;;;15.80;7.33;;;5.40;77.70;;;;;;5053053;28;20537;-75
2023/03/16 09:06:01;;;;;;;11.63;6.00;;;5.50;76.50;;;;;;5047244;28;20423;-75
2023/03/16 09:08:28;;;;;;;13.63;7.90;;;5.60;76.40;;;;;;5051567;28;20488;-73
2023/03/16 09:11:06;;;;;;;10.60;6.47;;;5.70;76.40;;;;;;5030053;28;20863;-76
2023/03/16 09:13:33;;;;;;;15.57;7.77;;;5.80;75.90;;;;;;5044541;28;20458;-75
2023/03/16 09:15:58;;;;;;;12.83;6.97;;;5.90;75.70;;;;;;5049578;28;20476;-75
2023/03/16 09:18:26;;;;;;;14.27;7.93;;;6.00;75.20;;;;;;5044899;28;20517;-75
2023/03/16 09:21:02;;;;;;;13.33;7.43;;;6.00;74.80;;;;;;5046390;28;20239;-74
2023/03/16 09:23:29;;;;;;;12.90;6.50;;;6.10;74.50;;;;;;5050704;28;20422;-75
2023/03/16 09:26:00;;;;;;;12.63;7.10;;;6.20;74.60;;;;;;5052974;28;20488;-75
2023/03/16 09:28:27;;;;;;;13.57;7.60;;;6.30;74.30;;;;;;5049399;28;20477;-76
2023/03/16 09:30:54;;;;;;;17.10;7.90;;;6.40;73.90;;;;;;5047882;28;20538;-75
2023/03/16 09:33:21;;;;;;;15.90;7.73;;;6.60;73.60;;;;;;5050952;28;20607;-75
2023/03/16 09:35:48;;;;;;;16.17;8.00;;;6.80;73.20;;;;;;5050898;28;20422;-74
2023/03/16 09:38:13;;;;;;;13.10;7.43;;;6.90;72.40;;;;;;5048418;28;20514;-74
2023/03/16 09:40:40;;;;;;;10.53;6.53;;;7.00;72.10;;;;;;5030040;28;20902;-74
2023/03/16 09:43:31;;;;;;;12.33;7.43;;;7.10;71.60;;;;;;5052749;28;20208;-75
2023/03/16 09:46:21;;;;;;;10.40;6.20;;;7.20;71.40;;;;;;5053686;28;20832;-75
2023/03/16 09:48:47;;;;;;;11.90;6.43;;;7.40;71.10;;;;;;5044066;28;20423;-72
2023/03/16 09:51:21;;;;;;;13.63;7.80;;;7.60;70.80;;;;;;5045201;28;20439;-76
2023/03/16 09:53:51;;;;;;;9.40;4.93;;;7.70;69.90;;;;;;5049557;28;20972;-74
2023/03/16 09:56:28;;;;;;;9.43;5.43;;;7.80;69.20;;;;;;5047454;28;20525;-76
2023/03/16 09:58:54;;;;;;;10.03;5.63;;;7.80;68.60;;;;;;5048821;28;20419;-76
2023/03/16 10:01:58;;;;;;;18.80;7.10;;;8.00;68.50;;;;;;5045312;28;20597;-74
2023/03/16 10:04:40;;;;;;;11.57;6.53;;;8.10;68.30;;;;;;5046656;28;20420;-75
2023/03/16 10:07:34;;;;;;;11.53;5.60;;;8.30;68.20;;;;;;5057869;28;20431;-75
2023/03/16 10:10:08;;;;;;;9.30;5.40;;;8.40;67.50;;;;;;5056445;28;20461;-74
2023/03/16 10:12:40;;;;;;;9.97;5.90;;;8.50;66.70;;;;;;5061079;28;20470;-74
2023/03/16 10:15:14;;;;;;;10.70;6.07;;;8.50;67.00;;;;;;5063559;28;20429;-73
2023/03/16 10:17:52;;;;;;;10.20;5.97;;;8.60;67.00;;;;;;5057285;28;20457;-75
2023/03/16 10:20:21;;;;;;;10.73;5.60;;;8.60;66.10;;;;;;5029213;28;20462;-75
2023/03/16 10:22:51;;;;;;;12.37;5.90;;;8.70;66.40;;;;;;5026834;28;20529;-75
2023/03/16 10:25:45;;;;;;;27.77;10.30;;;8.80;66.40;;;;;;5048162;28;20435;-73
2023/03/16 10:28:17;;;;;;;8.73;5.13;;;8.90;66.40;;;;;;5040181;28;20494;-75
2023/03/16 10:30:43;;;;;;;13.00;5.80;;;9.00;66.00;;;;;;5045763;28;20517;-74
2023/03/16 10:33:20;;;;;;;10.60;5.43;;;9.00;66.00;;;;;;5028789;28;20467;-75
2023/03/16 10:35:47;;;;;;;8.97;5.70;;;9.10;65.40;;;;;;5047180;28;20502;-75
2023/03/16 10:38:48;;;;;;;7.67;4.90;;;9.20;65.40;;;;;;5043556;28;20515;-74
2023/03/16 10:41:16;;;;;;;10.23;5.20;;;9.30;65.80;;;;;;5040530;28;20448;-74
2023/03/16 10:43:43;;;;;;;10.27;6.07;;;9.50;65.60;;;;;;5048213;28;20473;-75
2023/03/16 10:46:10;;;;;;;8.97;5.07;;;9.60;64.80;;;;;;5045707;28;20428;-73
2023/03/16 10:48:37;;;;;;;10.40;5.20;;;9.90;64.20;;;;;;5050290;28;20416;-75
2023/03/16 10:51:09;;;;;;;6.97;4.70;;;10.10;62.20;;;;;;5044067;28;20529;-74
2023/03/16 10:53:37;;;;;;;8.90;5.00;;;10.20;61.50;;;;;;5047923;28;20463;-74
2023/03/16 10:56:21;;;;;;;14.83;5.40;;;10.40;60.40;;;;;;5050547;28;20840;-75
2023/03/16 10:58:47;;;;;;;7.13;4.50;;;10.60;59.90;;;;;;5044450;28;20418;-75
2023/03/16 11:01:27;;;;;;;7.27;4.43;;;10.90;59.30;;;;;;5047195;28;20538;-74
2023/03/16 11:03:55;;;;;;;10.17;4.53;;;11.10;58.00;;;;;;5049251;28;20450;-74
2023/03/16 11:06:30;;;;;;;6.07;3.90;;;11.20;56.10;;;;;;5049549;28;20423;-74
2023/03/16 11:09:30;;;;;;;4.83;3.50;;;11.30;56.40;;;;;;5049120;28;20484;-72
2023/03/16 11:11:56;;;;;;;5.67;3.80;;;11.50;55.60;;;;;;5045912;28;20420;-75
2023/03/16 11:14:27;;;;;;;5.97;3.80;;;11.70;55.00;;;;;;5050327;28;20433;-74
2023/03/16 11:16:59;;;;;;;4.50;3.30;;;11.90;53.70;;;;;;5045666;28;20185;-72
2023/03/16 11:19:34;;;;;;;7.70;4.20;;;12.20;53.30;;;;;;5046890;28;20604;-74
2023/03/16 11:22:19;;;;;;;6.07;3.47;;;12.30;52.00;;;;;;5043596;28;20433;-73
2023/03/16 11:25:04;;;;;;;5.90;3.80;;;12.20;51.40;;;;;;5047067;28;20445;-73
2023/03/16 11:27:42;;;;;;;4.60;3.73;;;12.30;51.60;;;;;;5046144;28;20415;-74
2023/03/16 11:30:29;;;;;;;6.07;3.60;;;12.20;52.00;;;;;;5040271;28;20490;-75
2023/03/16 11:32:58;;;;;;;7.97;4.03;;;12.40;52.60;;;;;;5046400;28;20489;-74
2023/03/16 11:35:52;;;;;;;8.37;5.17;;;12.60;51.80;;;;;;5046676;28;20435;-74
2023/03/16 11:38:23;;;;;;;4.80;2.80;;;12.70;51.20;;;;;;5045365;28;20465;-74
2023/03/16 11:41:00;;;;;;;6.40;3.60;;;12.80;50.90;;;;;;5046125;28;20486;-73
2023/03/16 11:43:48;;;;;;;5.67;3.47;;;13.10;50.30;;;;;;5048959;28;20461;-75
2023/03/16 11:46:37;;;;;;;6.30;3.70;;;13.50;49.30;;;;;;5047401;28;21258;-75
2023/03/16 11:49:43;;;;;;;5.60;3.83;;;13.40;49.70;;;;;;5035548;28;20924;-73
2023/03/16 11:52:22;;;;;;;7.63;3.80;;;13.60;49.90;;;;;;5046423;28;20474;-75
2023/03/16 11:54:50;;;;;;;4.63;3.20;;;13.30;49.80;;;;;;5044999;28;20431;-74
2023/03/16 11:57:50;;;;;;;5.63;3.53;;;13.20;50.10;;;;;;5032213;28;20426;-73
2023/03/16 12:00:48;;;;;;;7.00;3.53;;;13.30;50.60;;;;;;5045175;28;21027;-76
2023/03/16 12:03:57;;;;;;;13.80;4.57;;;13.30;51.60;;;;;;5038729;28;20455;-75
2023/03/16 12:06:59;;;;;;;4.60;3.00;;;13.40;50.30;;;;;;5048390;28;20418;-76
2023/03/16 12:09:53;;;;;;;7.87;3.37;;;13.50;49.00;;;;;;5044299;28;20533;-75
2023/03/16 12:12:46;;;;;;;6.73;3.50;;;13.60;49.70;;;;;;5031164;28;20811;-74
2023/03/16 12:15:23;;;;;;;6.40;4.60;;;13.80;51.30;;;;;;5050165;28;20813;-73
2023/03/16 12:17:51;;;;;;;9.20;4.27;;;13.90;49.10;;;;;;5045884;28;20612;-76
2023/03/16 12:20:26;;;;;;;13.43;4.10;;;13.90;49.90;;;;;;5044562;28;20491;-76
2023/03/16 12:23:02;;;;;;;8.47;3.73;;;14.20;49.00;;;;;;5030218;28;20956;-74
2023/03/16 12:25:35;;;;;;;7.57;4.03;;;14.40;47.80;;;;;;5052347;28;20922;-73
2023/03/16 12:28:06;;;;;;;11.90;4.30;;;14.10;47.90;;;;;;5046806;28;20429;-75
2023/03/16 12:30:57;;;;;;;8.60;3.70;;;14.00;49.50;;;;;;5044765;28;20506;-74
2023/03/16 12:33:47;;;;;;;6.63;3.30;;;14.20;48.20;;;;;;5050652;28;20491;-75
2023/03/16 12:36:34;;;;;;;5.13;3.23;;;14.40;47.80;;;;;;5049295;28;21157;-73
2023/03/16 12:39:44;;;;;;;8.23;3.70;;;14.70;47.10;;;;;;5047125;28;20431;-74
2023/03/16 12:42:23;;;;;;;6.63;4.53;;;15.20;46.30;;;;;;5012130;28;20526;-74
2023/03/16 12:45:11;;;;;;;10.83;4.07;;;15.30;45.30;;;;;;5049731;28;20472;-75
2023/03/16 12:47:47;;;;;;;8.13;4.10;;;15.00;46.10;;;;;;5041217;28;20416;-74
2023/03/16 12:50:17;;;;;;;6.63;3.47;;;14.80;45.00;;;;;;5048031;28;20462;-75
2023/03/16 12:52:46;;;;;;;12.80;4.67;;;14.20;45.80;;;;;;5052101;28;21408;-75
2023/03/16 12:55:16;;;;;;;8.70;3.80;;;14.10;47.10;;;;;;5033057;28;20436;-74